createdAt,value
2022-11-23T00:01:35.935Z,99716.75
2022-11-23T00:04:12.627Z,99720.25
2022-11-23T00:06:41.207Z,99719.38
2022-11-23T00:09:11.646Z,99724.63
2022-11-23T00:11:39.433Z,99728.94
2022-11-23T00:14:07.496Z,99724.56
2022-11-23T00:16:50.657Z,99731.69
2022-11-23T00:19:18.623Z,99728.19
2022-11-23T00:21:46.329Z,99725.72
2022-11-23T00:24:14.336Z,99724.00
2022-11-23T00:26:42.045Z,99714.56
2022-11-23T00:29:10.087Z,99720.44
2022-11-23T00:31:38.423Z,99727.25
2022-11-23T00:34:08.228Z,99727.94
2022-11-23T00:36:35.876Z,99719.44
2022-11-23T00:39:03.997Z,99730.59
2022-11-23T00:41:31.651Z,99731.69
2022-11-23T00:43:59.669Z,99727.25
2022-11-23T00:46:28.753Z,99724.69
2022-11-23T00:48:58.916Z,99720.50
2022-11-23T00:51:32.694Z,99722.91
2022-11-23T00:54:01.566Z,99712.69
2022-11-23T00:56:30.397Z,99721.22
2022-11-23T00:59:00.457Z,99718.75
2022-11-23T01:01:33.757Z,99719.63
2022-11-23T01:04:03.954Z,99711.00
2022-11-23T01:06:38.199Z,99711.03
2022-11-23T01:09:12.116Z,99699.03
2022-11-23T01:11:39.954Z,99699.91
2022-11-23T01:14:07.888Z,99708.53
2022-11-23T01:16:38.420Z,99707.63
2022-11-23T01:19:11.714Z,99704.22
2022-11-23T01:21:39.882Z,99705.06
2022-11-23T01:24:26.456Z,99697.38
2022-11-23T01:26:55.465Z,99695.66
2022-11-23T01:29:24.648Z,99702.44
2022-11-23T01:31:52.318Z,99693.88
2022-11-23T01:34:20.304Z,99702.44
2022-11-23T01:36:48.096Z,99698.97
2022-11-23T01:39:16.010Z,99691.41
2022-11-23T01:41:45.486Z,99705.09
2022-11-23T01:44:34.887Z,99693.06
2022-11-23T01:47:08.655Z,99690.50
2022-11-23T01:49:42.937Z,99695.66
2022-11-23T01:52:12.857Z,99691.31
2022-11-23T01:54:54.927Z,99701.84
2022-11-23T01:57:34.435Z,99694.84
2022-11-23T02:00:02.879Z,99694.00
2022-11-23T02:02:47.715Z,99695.63
2022-11-23T02:05:18.668Z,99690.56
2022-11-23T02:07:49.372Z,99686.97
2022-11-23T02:10:18.237Z,99693.81
2022-11-23T02:12:46.489Z,99694.81
2022-11-23T02:15:14.733Z,99693.91
2022-11-23T02:17:44.199Z,99695.69
2022-11-23T02:20:17.696Z,99704.34
2022-11-23T02:23:06.745Z,99702.50
2022-11-23T02:25:43.147Z,99701.59
2022-11-23T02:28:15.010Z,99699.91
2022-11-23T02:30:44.296Z,99703.34
2022-11-23T02:33:12.033Z,99706.88
2022-11-23T02:35:54.874Z,99711.22
2022-11-23T02:38:25.557Z,99716.25
2022-11-23T02:40:53.707Z,99723.25
2022-11-23T02:43:35.702Z,99718.09
2022-11-23T02:46:05.575Z,99716.41
2022-11-23T02:48:33.303Z,99712.97
2022-11-23T02:51:04.610Z,99714.75
2022-11-23T02:53:33.259Z,99725.84
2022-11-23T02:56:01.194Z,99723.28
2022-11-23T02:58:28.967Z,99723.34
2022-11-23T03:00:56.931Z,99722.44
2022-11-23T03:03:24.821Z,99718.16
2022-11-23T03:05:52.755Z,99717.34
2022-11-23T03:08:20.426Z,99716.59
2022-11-23T03:10:49.547Z,99720.78
2022-11-23T03:13:17.244Z,99719.88
2022-11-23T03:15:45.565Z,99724.34
2022-11-23T03:18:13.539Z,99726.91
2022-11-23T03:20:41.543Z,99731.25
2022-11-23T03:23:09.221Z,99725.09
2022-11-23T03:25:37.199Z,99723.25
2022-11-23T03:28:06.517Z,99726.78
2022-11-23T03:30:35.339Z,99723.38
2022-11-23T03:33:05.411Z,99724.97
2022-11-23T03:35:33.421Z,99727.63
2022-11-23T03:38:18.770Z,99729.44
2022-11-23T03:40:47.736Z,99721.72
2022-11-23T03:43:26.579Z,99732.03
2022-11-23T03:45:54.570Z,99718.28
2022-11-23T03:48:23.582Z,99726.88
2022-11-23T03:50:52.184Z,99720.06
2022-11-23T03:53:19.932Z,99721.81
2022-11-23T03:55:48.192Z,99728.72
2022-11-23T03:58:16.338Z,99728.75
2022-11-23T04:00:44.431Z,99738.16
2022-11-23T04:03:15.532Z,99739.91
2022-11-23T04:06:02.500Z,99742.47
2022-11-23T04:08:48.463Z,99745.91
2022-11-23T04:11:24.282Z,99742.50
2022-11-23T04:13:52.003Z,99742.50
2022-11-23T04:16:20.728Z,99752.00
2022-11-23T04:18:48.620Z,99742.38
2022-11-23T04:21:17.424Z,99740.78
2022-11-23T04:23:45.423Z,99751.13
2022-11-23T04:26:15.704Z,99744.19
2022-11-23T04:28:46.310Z,99740.72
2022-11-23T04:31:14.816Z,99740.69
2022-11-23T04:33:58.755Z,99745.91
2022-11-23T04:36:28.139Z,99736.41
2022-11-23T04:38:56.330Z,99740.72
2022-11-23T04:41:34.290Z,99740.84
2022-11-23T04:44:04.265Z,99738.16
2022-11-23T04:46:32.325Z,99735.63
2022-11-23T04:49:01.279Z,99743.31
2022-11-23T04:51:29.382Z,99735.56
2022-11-23T04:53:57.284Z,99742.53
2022-11-23T04:56:28.632Z,99735.66
2022-11-23T04:58:56.418Z,99730.47
2022-11-23T05:01:25.350Z,99723.56
2022-11-23T05:04:33.212Z,99726.25
2022-11-23T05:07:02.064Z,99726.19
2022-11-23T05:09:32.416Z,99731.34
2022-11-23T05:12:11.614Z,99733.13
2022-11-23T05:14:42.957Z,99734.88
2022-11-23T05:17:12.379Z,99727.09
2022-11-23T05:19:42.031Z,99733.13
2022-11-23T05:22:10.109Z,99731.31
2022-11-23T05:24:41.264Z,99734.78
2022-11-23T05:27:12.008Z,99744.19
2022-11-23T05:29:40.107Z,99728.78
2022-11-23T05:32:08.990Z,99737.44
2022-11-23T05:34:36.703Z,99737.38
2022-11-23T05:37:05.904Z,99740.84
2022-11-23T05:39:34.351Z,99737.56
2022-11-23T05:42:02.647Z,99741.84
2022-11-23T05:44:35.038Z,99741.81
2022-11-23T05:47:05.500Z,99740.16
2022-11-23T05:49:35.359Z,99741.91
2022-11-23T05:52:06.201Z,99746.97
2022-11-23T05:54:36.241Z,99748.69
2022-11-23T05:57:09.218Z,99748.72
2022-11-23T05:59:39.889Z,99744.41
2022-11-23T06:02:11.779Z,99744.41
2022-11-23T06:04:39.546Z,99751.28
2022-11-23T06:07:11.765Z,99742.59
2022-11-23T06:10:09.072Z,99751.16
2022-11-23T06:12:41.031Z,99754.63
2022-11-23T06:15:13.720Z,99753.81
2022-11-23T06:17:42.399Z,99760.75
2022-11-23T06:20:15.868Z,99759.78
2022-11-23T06:22:53.853Z,99759.84
2022-11-23T06:25:23.916Z,99765.88
2022-11-23T06:28:01.428Z,99763.19
2022-11-23T06:30:37.003Z,99765.00
2022-11-23T06:33:08.205Z,99764.19
2022-11-23T06:35:43.016Z,99761.63
2022-11-23T06:38:11.563Z,99763.38
2022-11-23T06:40:39.964Z,99764.25
2022-11-23T06:43:09.059Z,99767.69
2022-11-23T06:45:43.136Z,99765.13
2022-11-23T06:48:15.087Z,99768.59
2022-11-23T06:50:46.891Z,99775.41
2022-11-23T06:53:16.680Z,99775.44
2022-11-23T06:55:49.021Z,99770.31
2022-11-23T06:58:19.655Z,99773.78
2022-11-23T07:00:47.580Z,99776.31
2022-11-23T07:03:24.197Z,99782.31
2022-11-23T07:06:10.840Z,99797.84
2022-11-23T07:08:43.391Z,99797.00
2022-11-23T07:11:33.918Z,99798.72
2022-11-23T07:14:01.979Z,99802.94
2022-11-23T07:16:31.402Z,99786.69
2022-11-23T07:18:59.518Z,99800.34
2022-11-23T07:21:27.320Z,99804.72
2022-11-23T07:23:55.864Z,99805.50
2022-11-23T07:26:23.650Z,99804.72
2022-11-23T07:28:51.543Z,99802.94
2022-11-23T07:31:19.691Z,99803.88
2022-11-23T07:33:47.922Z,99801.22
2022-11-23T07:36:15.693Z,99803.78
2022-11-23T07:38:45.978Z,99793.44
2022-11-23T07:41:16.251Z,99788.28
2022-11-23T07:44:07.200Z,99800.41
2022-11-23T07:46:35.057Z,99805.50
2022-11-23T07:49:03.168Z,99801.16
2022-11-23T07:51:31.076Z,99803.75
2022-11-23T07:53:59.030Z,99802.09
2022-11-23T07:56:26.700Z,99791.75
2022-11-23T07:58:54.607Z,99804.66
2022-11-23T08:01:22.391Z,99806.34
2022-11-23T08:03:50.455Z,99794.34
2022-11-23T08:06:18.290Z,99790.94
2022-11-23T08:08:46.380Z,99800.34
2022-11-23T08:11:20.761Z,99797.78
2022-11-23T08:13:49.001Z,99802.91
2022-11-23T08:16:16.715Z,99817.53
2022-11-23T08:18:44.699Z,99802.03
2022-11-23T08:21:12.555Z,99809.78
2022-11-23T08:23:40.540Z,99820.09
2022-11-23T08:26:13.447Z,99815.75
2022-11-23T08:28:42.265Z,99821.84
2022-11-23T08:31:11.734Z,99814.03
2022-11-23T08:33:40.719Z,99810.56
2022-11-23T08:36:09.095Z,99820.94
2022-11-23T08:38:37.181Z,99825.22
2022-11-23T08:41:05.713Z,99821.78
2022-11-23T08:43:34.916Z,99813.16
2022-11-23T08:46:07.937Z,99820.03
2022-11-23T08:48:38.832Z,99817.47
2022-11-23T08:51:07.152Z,99811.44
2022-11-23T08:53:35.174Z,99807.13
2022-11-23T08:56:07.497Z,99814.00
2022-11-23T08:58:36.902Z,99812.25
2022-11-23T09:01:09.570Z,99807.84
2022-11-23T09:03:37.764Z,99813.94
2022-11-23T09:06:05.608Z,99811.34
2022-11-23T09:08:33.882Z,99807.81
2022-11-23T09:11:02.835Z,99823.28
2022-11-23T09:13:31.393Z,99820.75
2022-11-23T09:16:03.484Z,99818.22
2022-11-23T09:18:33.251Z,99828.50
2022-11-23T09:21:04.381Z,99828.47
2022-11-23T09:23:32.862Z,99807.84
2022-11-23T09:26:01.610Z,99810.44
2022-11-23T09:28:29.934Z,99809.53
2022-11-23T09:30:57.995Z,99806.06
2022-11-23T09:33:26.305Z,99802.44
2022-11-23T09:35:59.253Z,99796.34
2022-11-23T09:38:51.486Z,99800.53
2022-11-23T09:41:37.645Z,99802.19
2022-11-23T09:44:14.056Z,99804.84
2022-11-23T09:47:19.346Z,99799.59
2022-11-23T09:50:11.392Z,99793.59
2022-11-23T09:52:44.173Z,99787.44
2022-11-23T09:55:41.934Z,99789.53
2022-11-23T09:58:16.108Z,99779.31
2022-11-23T10:01:02.015Z,99779.13
2022-11-23T10:03:34.470Z,99775.72
2022-11-23T10:06:06.462Z,99770.53
2022-11-23T10:09:24.826Z,99767.09
2022-11-23T10:12:16.701Z,99781.63
2022-11-23T10:14:59.736Z,99786.03
2022-11-23T10:17:43.297Z,99780.88
2022-11-23T10:20:17.414Z,99775.03
2022-11-23T10:23:01.414Z,99790.53
2022-11-23T10:25:46.733Z,99793.84
2022-11-23T10:28:18.327Z,99793.00
2022-11-23T10:30:53.823Z,99787.84
2022-11-23T10:33:30.124Z,99789.47
2022-11-23T10:35:58.356Z,99784.41
2022-11-23T10:38:28.138Z,99783.56
2022-11-23T10:41:15.502Z,99776.69
2022-11-23T10:44:01.002Z,99774.03
2022-11-23T10:46:34.917Z,99773.28
2022-11-23T10:49:23.091Z,99780.16
2022-11-23T10:52:17.891Z,99775.78
2022-11-23T10:54:45.759Z,99761.25
2022-11-23T10:57:33.656Z,99749.13
2022-11-23T11:00:15.836Z,99747.38
2022-11-23T11:02:49.593Z,99755.94
2022-11-23T11:08:27.976Z,99745.66
2022-11-23T11:11:06.535Z,99737.84
2022-11-23T11:13:42.747Z,99750.69
2022-11-23T11:16:26.138Z,99740.25
2022-11-23T11:18:54.076Z,99739.44
2022-11-23T11:21:35.176Z,99741.81
2022-11-23T11:24:04.179Z,99739.44
2022-11-23T11:26:35.147Z,99741.97
2022-11-23T11:29:06.534Z,99745.44
2022-11-23T11:31:50.414Z,99743.94
2022-11-23T11:34:24.161Z,99746.53
2022-11-23T11:37:03.489Z,99740.56
2022-11-23T11:39:42.166Z,99734.50
2022-11-23T11:42:21.104Z,99730.09
2022-11-23T11:44:53.028Z,99736.81
2022-11-23T11:47:32.285Z,99743.78
2022-11-23T11:50:06.110Z,99740.28
2022-11-23T11:52:39.925Z,99749.72
2022-11-23T11:55:20.104Z,99742.06
2022-11-23T11:58:08.489Z,99744.53
2022-11-23T12:00:43.541Z,99735.13
2022-11-23T12:03:24.977Z,99734.34
2022-11-23T12:05:55.975Z,99733.56
2022-11-23T12:08:39.392Z,99730.91
2022-11-23T12:11:11.567Z,99742.13
2022-11-23T12:13:43.009Z,99745.63
2022-11-23T12:16:30.873Z,99743.63
2022-11-23T12:19:16.922Z,99748.91
2022-11-23T12:22:03.937Z,99757.56
2022-11-23T12:25:11.494Z,99756.88
2022-11-23T12:27:59.174Z,99757.75
2022-11-23T12:30:52.487Z,99756.78
2022-11-23T12:33:20.218Z,99757.59
2022-11-23T12:36:06.405Z,99752.44
2022-11-23T12:39:24.461Z,99748.28
2022-11-23T12:42:41.769Z,99745.66
2022-11-23T12:45:39.454Z,99743.16
2022-11-23T12:48:31.650Z,99733.53
2022-11-23T12:51:40.650Z,99729.38
2022-11-23T12:54:44.595Z,99739.69
2022-11-23T12:57:22.502Z,99726.69
2022-11-23T13:00:01.139Z,99730.13
2022-11-23T13:02:50.086Z,99729.34
2022-11-23T13:05:39.745Z,99732.94
2022-11-23T13:08:28.408Z,99733.00
2022-11-23T13:11:23.211Z,99717.59
2022-11-23T13:14:16.413Z,99721.91
2022-11-23T13:16:54.971Z,99727.06
2022-11-23T13:19:41.305Z,99711.66
2022-11-23T13:22:19.017Z,99711.72
2022-11-23T13:25:08.485Z,99716.03
2022-11-23T13:27:49.686Z,99718.69
2022-11-23T13:33:23.678Z,99734.13
2022-11-23T13:36:03.551Z,99731.53
2022-11-23T13:38:43.584Z,99733.34
2022-11-23T13:41:42.668Z,99724.72
2022-11-23T13:44:24.580Z,99728.19
2022-11-23T13:47:14.820Z,99735.00
2022-11-23T13:49:45.948Z,99729.00
2022-11-23T13:52:23.845Z,99730.75
2022-11-23T13:55:08.968Z,99737.63
2022-11-23T13:57:42.698Z,99743.56
2022-11-23T14:00:46.721Z,99735.78
2022-11-23T14:03:42.808Z,99739.13
2022-11-23T14:06:23.557Z,99746.16
2022-11-23T14:09:17.662Z,99753.03
2022-11-23T14:11:54.279Z,99749.63
2022-11-23T14:14:26.527Z,99759.06
2022-11-23T14:17:27.319Z,99752.25
2022-11-23T14:20:00.968Z,99735.91
2022-11-23T14:22:58.025Z,99748.03
2022-11-23T14:25:45.067Z,99748.81
2022-11-23T14:28:47.015Z,99743.75
2022-11-23T14:31:17.671Z,99748.03
2022-11-23T14:33:59.131Z,99750.53
2022-11-23T14:36:35.755Z,99747.97
2022-11-23T14:39:38.610Z,99758.28
2022-11-23T14:42:17.151Z,99754.84
2022-11-23T14:44:45.808Z,99758.28
2022-11-23T14:47:13.816Z,99763.38
2022-11-23T14:49:51.697Z,99757.41
2022-11-23T14:52:26.439Z,99756.50
2022-11-23T14:54:57.373Z,99761.69
2022-11-23T14:57:29.173Z,99762.53
2022-11-23T15:00:00.622Z,99775.47
2022-11-23T15:02:38.326Z,99780.69
2022-11-23T15:05:24.466Z,99784.97
2022-11-23T15:08:30.251Z,99785.84
2022-11-23T15:11:06.952Z,99790.13
2022-11-23T15:13:49.640Z,99791.88
2022-11-23T15:16:20.399Z,99788.47
2022-11-23T15:18:49.359Z,99779.91
2022-11-23T15:21:27.207Z,99782.47
2022-11-23T15:23:58.308Z,99779.03
2022-11-23T15:29:37.034Z,99787.66
2022-11-23T15:32:30.740Z,99779.09
2022-11-23T15:35:01.672Z,99782.47
2022-11-23T15:37:31.374Z,99778.09
2022-11-23T15:39:59.521Z,99773.78
2022-11-23T15:42:28.664Z,99772.09
2022-11-23T15:44:56.648Z,99777.28
2022-11-23T15:47:28.147Z,99773.00
2022-11-23T15:50:04.048Z,99777.28
2022-11-23T15:52:37.333Z,99782.44
2022-11-23T15:55:14.453Z,99781.59
2022-11-23T15:57:42.967Z,99784.16
2022-11-23T16:00:24.937Z,99793.63
2022-11-23T16:02:53.528Z,99791.91
2022-11-23T16:05:23.720Z,99791.88
2022-11-23T16:08:02.586Z,99785.00
2022-11-23T16:10:37.526Z,99778.13
2022-11-23T16:13:08.818Z,99775.59
2022-11-23T16:15:44.271Z,99791.03
2022-11-23T16:18:18.475Z,99795.34
2022-11-23T16:20:49.236Z,99793.63
2022-11-23T16:23:55.436Z,99796.22
2022-11-23T16:26:33.500Z,99791.09
2022-11-23T16:29:02.430Z,99795.34
2022-11-23T16:31:51.711Z,99783.31
2022-11-23T16:34:20.190Z,99786.72
2022-11-23T16:36:48.425Z,99785.91
2022-11-23T16:39:16.569Z,99773.00
2022-11-23T16:41:44.366Z,99778.16
2022-11-23T16:44:12.693Z,99781.59
2022-11-23T16:46:43.426Z,99779.88
2022-11-23T16:49:21.601Z,99777.31
2022-11-23T16:51:56.496Z,99779.03
2022-11-23T16:54:25.746Z,99785.91
2022-11-23T16:56:53.975Z,99799.69
2022-11-23T16:59:23.859Z,99800.53
2022-11-23T17:01:56.964Z,99800.53
2022-11-23T17:04:26.523Z,99797.97
2022-11-23T17:06:54.426Z,99797.09
2022-11-23T17:09:22.410Z,99799.63
2022-11-23T17:11:50.962Z,99798.75
2022-11-23T17:14:20.662Z,99800.44
2022-11-23T17:16:49.889Z,99805.59
2022-11-23T17:19:20.044Z,99798.72
2022-11-23T17:21:47.982Z,99800.47
2022-11-23T17:24:16.009Z,99797.91
2022-11-23T17:26:46.536Z,99799.63
2022-11-23T17:29:19.083Z,99799.66
2022-11-23T17:31:48.044Z,99794.53
2022-11-23T17:34:16.535Z,99802.25
2022-11-23T17:36:46.288Z,99804.84
2022-11-23T17:39:24.173Z,99801.41
2022-11-23T17:41:52.510Z,99794.53
2022-11-23T17:44:20.973Z,99789.41
2022-11-23T17:46:49.891Z,99785.97
2022-11-23T17:49:27.520Z,99785.97
2022-11-23T17:51:56.249Z,99787.69
2022-11-23T17:54:24.959Z,99794.53
2022-11-23T17:56:52.762Z,99787.66
2022-11-23T17:59:20.830Z,99790.25
2022-11-23T18:01:49.139Z,99794.53
2022-11-23T18:04:17.175Z,99796.25
2022-11-23T18:06:44.990Z,99790.25
2022-11-23T18:09:13.092Z,99796.25
2022-11-23T18:11:40.838Z,99791.09
2022-11-23T18:14:08.435Z,99790.25
2022-11-23T18:16:36.424Z,99802.28
2022-11-23T18:19:04.727Z,99800.56
2022-11-23T18:21:32.753Z,99794.56
2022-11-23T18:24:04.456Z,99803.13
2022-11-23T18:26:33.044Z,99791.16
2022-11-23T18:29:00.825Z,99784.28
2022-11-23T18:31:29.055Z,99776.56
2022-11-23T18:33:56.931Z,99781.72
2022-11-23T18:36:25.181Z,99785.97
2022-11-23T18:38:53.084Z,99786.88
2022-11-23T18:41:22.647Z,99798.88
2022-11-23T18:43:50.584Z,99801.44
2022-11-23T18:46:21.759Z,99798.00
2022-11-23T18:48:51.054Z,99802.28
2022-11-23T18:51:19.826Z,99797.13
2022-11-23T18:53:48.149Z,99784.28
2022-11-23T18:56:16.563Z,99786.84
2022-11-23T18:58:45.867Z,99795.41
2022-11-23T19:01:19.558Z,99780.84
2022-11-23T19:03:50.346Z,99779.13
2022-11-23T19:06:20.790Z,99778.28
2022-11-23T19:08:50.924Z,99781.69
2022-11-23T19:11:21.414Z,99784.25
2022-11-23T19:13:51.727Z,99772.25
2022-11-23T19:16:23.838Z,99773.97
2022-11-23T19:18:59.560Z,99781.69
2022-11-23T19:21:31.071Z,99791.13
2022-11-23T19:24:00.390Z,99776.56
2022-11-23T19:26:30.119Z,99792.84
2022-11-23T19:28:59.039Z,99786.00
2022-11-23T19:31:29.873Z,99785.09
2022-11-23T19:34:02.375Z,99782.56
2022-11-23T19:36:33.273Z,99784.25
2022-11-23T19:39:00.977Z,99782.56
2022-11-23T19:41:30.805Z,99781.72
2022-11-23T19:44:00.241Z,99780.84
2022-11-23T19:46:30.512Z,99779.13
2022-11-23T19:48:59.283Z,99788.53
2022-11-23T19:51:28.243Z,99787.69
2022-11-23T19:54:01.879Z,99785.97
2022-11-23T19:56:30.225Z,99790.25
2022-11-23T19:59:00.972Z,99796.22
2022-11-23T20:01:32.156Z,99796.19
2022-11-23T20:04:09.602Z,99803.03
2022-11-23T20:06:42.526Z,99803.06
2022-11-23T20:09:13.483Z,99799.59
2022-11-23T20:11:42.420Z,99802.19
2022-11-23T20:14:13.275Z,99815.00
2022-11-23T20:16:41.403Z,99809.03
2022-11-23T20:19:10.346Z,99804.78
2022-11-23T20:21:38.684Z,99806.47
2022-11-23T20:24:13.035Z,99794.47
2022-11-23T20:26:42.312Z,99806.50
2022-11-23T20:29:10.740Z,99803.06
2022-11-23T20:31:39.310Z,99798.78
2022-11-23T20:34:09.461Z,99803.06
2022-11-23T20:36:39.149Z,99800.47
2022-11-23T20:39:09.894Z,99807.34
2022-11-23T20:41:38.837Z,99812.44
2022-11-23T20:44:12.021Z,99813.28
2022-11-23T20:49:30.106Z,99812.41
2022-11-23T20:51:59.562Z,99816.72
2022-11-23T20:54:27.312Z,99797.94
2022-11-23T20:56:55.731Z,99787.66
2022-11-23T20:59:24.414Z,99796.25
2022-11-23T21:01:52.857Z,99806.50
2022-11-23T21:04:20.596Z,99804.78
2022-11-23T21:06:48.642Z,99818.50
2022-11-23T21:09:17.171Z,99824.53
2022-11-23T21:12:03.955Z,99819.34
2022-11-23T21:14:33.090Z,99816.81
2022-11-23T21:17:01.471Z,99807.41
2022-11-23T21:19:33.918Z,99816.78
2022-11-23T21:22:10.971Z,99820.25
2022-11-23T21:24:39.443Z,99815.97
2022-11-23T21:27:12.081Z,99811.69
2022-11-23T21:29:40.545Z,99810.81
2022-11-23T21:32:14.763Z,99815.94
2022-11-23T21:34:43.024Z,99817.66
2022-11-23T21:37:12.648Z,99824.50
2022-11-23T21:39:41.543Z,99824.53
2022-11-23T21:42:10.165Z,99825.41
2022-11-23T21:44:37.931Z,99828.81
2022-11-23T21:47:06.061Z,99827.97
2022-11-23T21:49:33.870Z,99828.81
2022-11-23T21:52:01.896Z,99823.69
2022-11-23T21:54:29.613Z,99821.94
2022-11-23T21:56:57.772Z,99830.53
2022-11-23T21:59:25.709Z,99827.97
2022-11-23T22:08:13.643Z,99810.78
2022-11-23T22:10:37.951Z,99809.94
2022-11-23T22:13:06.013Z,99817.69
2022-11-23T22:15:33.952Z,99823.69
2022-11-23T22:18:02.049Z,99817.66
2022-11-23T22:20:29.976Z,99812.53
2022-11-23T22:22:58.263Z,99808.25
2022-11-23T22:25:26.281Z,99815.97
2022-11-23T22:27:54.438Z,99820.25
2022-11-23T22:30:22.652Z,99823.66
2022-11-23T22:32:50.799Z,99827.09
2022-11-23T22:35:18.866Z,99823.69
2022-11-23T22:37:47.548Z,99820.25
2022-11-23T22:40:15.627Z,99818.53
2022-11-23T22:42:44.265Z,99822.84
2022-11-23T22:45:12.330Z,99822.84
2022-11-23T22:47:40.385Z,99821.97
2022-11-23T22:50:08.643Z,99825.41
2022-11-23T22:52:36.728Z,99830.56
2022-11-23T22:55:04.918Z,99827.09
2022-11-23T22:57:33.209Z,99816.00
2022-11-23T23:00:00.994Z,99819.41
2022-11-23T23:02:30.233Z,99815.97
2022-11-23T23:04:58.384Z,99821.13
2022-11-23T23:07:26.675Z,99803.09
2022-11-23T23:09:54.568Z,99809.13
2022-11-23T23:12:22.647Z,99817.69
2022-11-23T23:14:50.640Z,99815.97
2022-11-23T23:17:18.744Z,99803.13
2022-11-23T23:19:47.064Z,99809.97
2022-11-23T23:22:15.225Z,99807.41
2022-11-23T23:24:43.130Z,99818.56
2022-11-23T23:27:11.179Z,99827.97
2022-11-23T23:29:39.017Z,99817.69
2022-11-23T23:32:07.163Z,99808.25
2022-11-23T23:34:35.285Z,99810.84
2022-11-23T23:37:03.506Z,99820.25
2022-11-23T23:39:31.334Z,99809.97
2022-11-23T23:41:59.387Z,99811.69
2022-11-23T23:44:27.318Z,99814.28
2022-11-23T23:46:55.414Z,99823.72
2022-11-23T23:49:24.639Z,99828.84
2022-11-23T23:51:52.778Z,99827.13
2022-11-23T23:54:20.546Z,99815.97
2022-11-23T23:56:48.667Z,99816.84
2022-11-23T23:59:16.543Z,99804.00
